sensor_id;sensor_type;location;lat;lon;timestamp;P1;durP1;ratioP1;P2;durP2;ratioP2
25231;SDS011;13176;51.140;6.290;2023-11-25T00:00:46;27.30;;;25.38;;
25231;SDS011;13176;51.140;6.290;2023-11-25T00:03:13;27.02;;;25.08;;
25231;SDS011;13176;51.140;6.290;2023-11-25T00:05:40;28.90;;;26.45;;
25231;SDS011;13176;51.140;6.290;2023-11-25T00:08:06;32.40;;;29.77;;
25231;SDS011;13176;51.140;6.290;2023-11-25T00:10:34;33.80;;;30.38;;
25231;SDS011;13176;51.140;6.290;2023-11-25T00:13:01;32.13;;;29.48;;
25231;SDS011;13176;51.140;6.290;2023-11-25T00:15:28;30.58;;;27.83;;
25231;SDS011;13176;51.140;6.290;2023-11-25T00:17:55;33.95;;;31.20;;
25231;SDS011;13176;51.140;6.290;2023-11-25T00:20:22;34.25;;;31.38;;
25231;SDS011;13176;51.140;6.290;2023-11-25T00:22:49;34.65;;;32.08;;
25231;SDS011;13176;51.140;6.290;2023-11-25T00:25:15;35.72;;;32.42;;
25231;SDS011;13176;51.140;6.290;2023-11-25T00:27:45;29.23;;;27.02;;
25231;SDS011;13176;51.140;6.290;2023-11-25T00:30:15;31.80;;;28.85;;
25231;SDS011;13176;51.140;6.290;2023-11-25T00:32:42;33.72;;;30.65;;
25231;SDS011;13176;51.140;6.290;2023-11-25T00:35:08;33.90;;;30.33;;
25231;SDS011;13176;51.140;6.290;2023-11-25T00:37:35;37.70;;;32.05;;
25231;SDS011;13176;51.140;6.290;2023-11-25T00:40:07;33.58;;;30.65;;
25231;SDS011;13176;51.140;6.290;2023-11-25T00:42:36;34.00;;;31.08;;
25231;SDS011;13176;51.140;6.290;2023-11-25T00:45:06;30.98;;;28.23;;
25231;SDS011;13176;51.140;6.290;2023-11-25T00:47:34;32.63;;;29.80;;
25231;SDS011;13176;51.140;6.290;2023-11-25T00:50:02;28.48;;;25.83;;
25231;SDS011;13176;51.140;6.290;2023-11-25T00:52:32;28.67;;;26.40;;
25231;SDS011;13176;51.140;6.290;2023-11-25T00:54:59;28.60;;;26.27;;
25231;SDS011;13176;51.140;6.290;2023-11-25T00:57:25;27.60;;;25.40;;
25231;SDS011;13176;51.140;6.290;2023-11-25T00:59:52;28.23;;;25.77;;
25231;SDS011;13176;51.140;6.290;2023-11-25T01:02:19;27.60;;;25.38;;
25231;SDS011;13176;51.140;6.290;2023-11-25T01:04:46;31.73;;;28.52;;
25231;SDS011;13176;51.140;6.290;2023-11-25T01:07:13;31.73;;;29.13;;
25231;SDS011;13176;51.140;6.290;2023-11-25T01:09:39;30.02;;;27.77;;
25231;SDS011;13176;51.140;6.290;2023-11-25T01:12:06;32.78;;;29.80;;
25231;SDS011;13176;51.140;6.290;2023-11-25T01:14:33;28.30;;;26.08;;
25231;SDS011;13176;51.140;6.290;2023-11-25T01:17:00;28.52;;;25.63;;
25231;SDS011;13176;51.140;6.290;2023-11-25T01:19:27;30.77;;;28.52;;
25231;SDS011;13176;51.140;6.290;2023-11-25T01:21:54;30.10;;;27.65;;
25231;SDS011;13176;51.140;6.290;2023-11-25T01:24:21;29.67;;;27.05;;
25231;SDS011;13176;51.140;6.290;2023-11-25T01:26:47;28.52;;;26.00;;
25231;SDS011;13176;51.140;6.290;2023-11-25T01:29:14;29.50;;;26.65;;
25231;SDS011;13176;51.140;6.290;2023-11-25T01:31:41;30.92;;;28.30;;
25231;SDS011;13176;51.140;6.290;2023-11-25T01:34:08;30.13;;;27.45;;
25231;SDS011;13176;51.140;6.290;2023-11-25T01:36:34;30.08;;;27.17;;
25231;SDS011;13176;51.140;6.290;2023-11-25T01:39:00;29.40;;;26.63;;
25231;SDS011;13176;51.140;6.290;2023-11-25T01:41:27;30.95;;;28.40;;
25231;SDS011;13176;51.140;6.290;2023-11-25T01:43:53;29.90;;;27.05;;
25231;SDS011;13176;51.140;6.290;2023-11-25T01:46:34;31.00;;;27.90;;
25231;SDS011;13176;51.140;6.290;2023-11-25T01:49:05;28.92;;;26.25;;
25231;SDS011;13176;51.140;6.290;2023-11-25T01:51:38;28.73;;;26.58;;
25231;SDS011;13176;51.140;6.290;2023-11-25T01:54:14;28.77;;;26.02;;
25231;SDS011;13176;51.140;6.290;2023-11-25T01:56:47;29.17;;;26.85;;
25231;SDS011;13176;51.140;6.290;2023-11-25T01:59:16;31.42;;;28.30;;
25231;SDS011;13176;51.140;6.290;2023-11-25T02:01:44;31.70;;;28.50;;
25231;SDS011;13176;51.140;6.290;2023-11-25T02:04:12;31.13;;;28.63;;
25231;SDS011;13176;51.140;6.290;2023-11-25T02:06:40;31.02;;;28.58;;
25231;SDS011;13176;51.140;6.290;2023-11-25T02:09:06;31.05;;;28.20;;
25231;SDS011;13176;51.140;6.290;2023-11-25T02:11:52;31.63;;;29.02;;
25231;SDS011;13176;51.140;6.290;2023-11-25T02:14:28;30.08;;;27.27;;
25231;SDS011;13176;51.140;6.290;2023-11-25T02:16:55;31.70;;;28.80;;
25231;SDS011;13176;51.140;6.290;2023-11-25T02:19:24;30.88;;;27.95;;
25231;SDS011;13176;51.140;6.290;2023-11-25T02:21:52;29.73;;;27.10;;
25231;SDS011;13176;51.140;6.290;2023-11-25T02:24:19;31.85;;;29.17;;
25231;SDS011;13176;51.140;6.290;2023-11-25T02:26:45;33.90;;;30.95;;
25231;SDS011;13176;51.140;6.290;2023-11-25T02:29:12;33.85;;;31.00;;
25231;SDS011;13176;51.140;6.290;2023-11-25T02:31:39;33.28;;;30.63;;
25231;SDS011;13176;51.140;6.290;2023-11-25T02:34:05;32.40;;;29.88;;
25231;SDS011;13176;51.140;6.290;2023-11-25T02:36:36;31.92;;;29.13;;
25231;SDS011;13176;51.140;6.290;2023-11-25T02:39:04;30.88;;;28.25;;
25231;SDS011;13176;51.140;6.290;2023-11-25T02:41:30;34.08;;;31.33;;
25231;SDS011;13176;51.140;6.290;2023-11-25T02:43:57;34.00;;;31.02;;
25231;SDS011;13176;51.140;6.290;2023-11-25T02:46:24;34.72;;;31.98;;
25231;SDS011;13176;51.140;6.290;2023-11-25T02:48:50;35.30;;;32.42;;
25231;SDS011;13176;51.140;6.290;2023-11-25T02:51:17;33.60;;;30.90;;
25231;SDS011;13176;51.140;6.290;2023-11-25T02:53:43;35.30;;;31.80;;
25231;SDS011;13176;51.140;6.290;2023-11-25T02:56:10;31.35;;;29.02;;
25231;SDS011;13176;51.140;6.290;2023-11-25T02:58:36;34.75;;;31.77;;
25231;SDS011;13176;51.140;6.290;2023-11-25T03:01:03;30.98;;;28.63;;
25231;SDS011;13176;51.140;6.290;2023-11-25T03:03:34;33.38;;;29.90;;
25231;SDS011;13176;51.140;6.290;2023-11-25T03:06:03;30.70;;;28.05;;
25231;SDS011;13176;51.140;6.290;2023-11-25T03:08:32;32.25;;;29.45;;
25231;SDS011;13176;51.140;6.290;2023-11-25T03:11:00;33.55;;;30.92;;
25231;SDS011;13176;51.140;6.290;2023-11-25T03:13:31;31.67;;;28.48;;
25231;SDS011;13176;51.140;6.290;2023-11-25T03:15:57;33.20;;;30.48;;
25231;SDS011;13176;51.140;6.290;2023-11-25T03:18:24;32.42;;;29.42;;
25231;SDS011;13176;51.140;6.290;2023-11-25T03:20:50;32.08;;;29.58;;
25231;SDS011;13176;51.140;6.290;2023-11-25T03:23:16;30.55;;;27.90;;
25231;SDS011;13176;51.140;6.290;2023-11-25T03:25:43;32.03;;;28.85;;
25231;SDS011;13176;51.140;6.290;2023-11-25T03:28:10;31.15;;;28.55;;
25231;SDS011;13176;51.140;6.290;2023-11-25T03:30:37;31.02;;;28.33;;
25231;SDS011;13176;51.140;6.290;2023-11-25T03:33:04;33.40;;;30.02;;
25231;SDS011;13176;51.140;6.290;2023-11-25T03:35:30;32.00;;;29.35;;
25231;SDS011;13176;51.140;6.290;2023-11-25T03:37:58;35.30;;;32.03;;
25231;SDS011;13176;51.140;6.290;2023-11-25T03:40:24;29.02;;;26.52;;
25231;SDS011;13176;51.140;6.290;2023-11-25T03:42:51;30.90;;;28.08;;
25231;SDS011;13176;51.140;6.290;2023-11-25T03:45:17;32.80;;;30.15;;
25231;SDS011;13176;51.140;6.290;2023-11-25T03:47:44;29.95;;;27.30;;
25231;SDS011;13176;51.140;6.290;2023-11-25T03:50:11;31.85;;;28.80;;
25231;SDS011;13176;51.140;6.290;2023-11-25T03:52:42;31.75;;;28.23;;
25231;SDS011;13176;51.140;6.290;2023-11-25T03:55:09;33.70;;;30.88;;
25231;SDS011;13176;51.140;6.290;2023-11-25T03:57:38;33.70;;;30.48;;
25231;SDS011;13176;51.140;6.290;2023-11-25T04:00:06;33.28;;;29.77;;
25231;SDS011;13176;51.140;6.290;2023-11-25T04:02:46;31.35;;;28.73;;
25231;SDS011;13176;51.140;6.290;2023-11-25T04:05:16;33.08;;;30.40;;
25231;SDS011;13176;51.140;6.290;2023-11-25T04:07:43;32.33;;;29.67;;
25231;SDS011;13176;51.140;6.290;2023-11-25T04:10:10;31.15;;;27.95;;
25231;SDS011;13176;51.140;6.290;2023-11-25T04:12:43;31.30;;;28.20;;
25231;SDS011;13176;51.140;6.290;2023-11-25T04:15:11;30.55;;;27.80;;
25231;SDS011;13176;51.140;6.290;2023-11-25T04:17:38;33.22;;;30.17;;
25231;SDS011;13176;51.140;6.290;2023-11-25T04:20:06;33.30;;;29.75;;
25231;SDS011;13176;51.140;6.290;2023-11-25T04:22:46;33.08;;;30.48;;
25231;SDS011;13176;51.140;6.290;2023-11-25T04:25:14;29.80;;;27.35;;
25231;SDS011;13176;51.140;6.290;2023-11-25T04:27:42;26.98;;;24.33;;
25231;SDS011;13176;51.140;6.290;2023-11-25T04:30:10;28.38;;;25.42;;
25231;SDS011;13176;51.140;6.290;2023-11-25T04:32:37;27.92;;;25.38;;
25231;SDS011;13176;51.140;6.290;2023-11-25T04:35:06;28.67;;;26.38;;
25231;SDS011;13176;51.140;6.290;2023-11-25T04:37:34;28.23;;;25.58;;
25231;SDS011;13176;51.140;6.290;2023-11-25T04:40:01;29.33;;;26.55;;
25231;SDS011;13176;51.140;6.290;2023-11-25T04:42:35;30.58;;;27.75;;
25231;SDS011;13176;51.140;6.290;2023-11-25T04:45:01;29.38;;;26.48;;
25231;SDS011;13176;51.140;6.290;2023-11-25T04:47:29;29.75;;;26.92;;
25231;SDS011;13176;51.140;6.290;2023-11-25T04:49:55;31.45;;;26.45;;
25231;SDS011;13176;51.140;6.290;2023-11-25T04:52:22;29.38;;;26.42;;
25231;SDS011;13176;51.140;6.290;2023-11-25T04:54:49;29.55;;;26.80;;
25231;SDS011;13176;51.140;6.290;2023-11-25T04:57:16;29.88;;;27.27;;
25231;SDS011;13176;51.140;6.290;2023-11-25T04:59:42;29.58;;;25.70;;
25231;SDS011;13176;51.140;6.290;2023-11-25T05:02:09;31.55;;;28.58;;
25231;SDS011;13176;51.140;6.290;2023-11-25T05:04:36;30.02;;;27.27;;
25231;SDS011;13176;51.140;6.290;2023-11-25T05:07:02;29.73;;;26.80;;
25231;SDS011;13176;51.140;6.290;2023-11-25T05:09:30;32.70;;;27.00;;
25231;SDS011;13176;51.140;6.290;2023-11-25T05:11:56;34.55;;;27.75;;
25231;SDS011;13176;51.140;6.290;2023-11-25T05:14:23;29.40;;;26.85;;
25231;SDS011;13176;51.140;6.290;2023-11-25T05:16:49;27.33;;;25.20;;
25231;SDS011;13176;51.140;6.290;2023-11-25T05:19:16;30.55;;;27.42;;
25231;SDS011;13176;51.140;6.290;2023-11-25T05:21:43;28.67;;;25.95;;
25231;SDS011;13176;51.140;6.290;2023-11-25T05:24:10;29.70;;;27.00;;
25231;SDS011;13176;51.140;6.290;2023-11-25T05:26:37;27.75;;;25.33;;
25231;SDS011;13176;51.140;6.290;2023-11-25T05:29:03;29.27;;;26.50;;
25231;SDS011;13176;51.140;6.290;2023-11-25T05:31:31;31.60;;;28.60;;
25231;SDS011;13176;51.140;6.290;2023-11-25T05:34:00;30.80;;;27.88;;
25231;SDS011;13176;51.140;6.290;2023-11-25T05:36:29;32.03;;;29.27;;
25231;SDS011;13176;51.140;6.290;2023-11-25T05:38:57;30.73;;;28.15;;
25231;SDS011;13176;51.140;6.290;2023-11-25T05:41:23;31.90;;;29.38;;
25231;SDS011;13176;51.140;6.290;2023-11-25T05:43:51;32.42;;;29.50;;
25231;SDS011;13176;51.140;6.290;2023-11-25T05:46:21;33.45;;;30.13;;
25231;SDS011;13176;51.140;6.290;2023-11-25T05:48:50;32.15;;;29.27;;
25231;SDS011;13176;51.140;6.290;2023-11-25T05:51:17;31.75;;;29.08;;
25231;SDS011;13176;51.140;6.290;2023-11-25T05:53:45;31.73;;;28.92;;
25231;SDS011;13176;51.140;6.290;2023-11-25T05:56:12;32.88;;;30.00;;
25231;SDS011;13176;51.140;6.290;2023-11-25T05:58:38;31.67;;;29.02;;
25231;SDS011;13176;51.140;6.290;2023-11-25T06:01:05;32.75;;;29.67;;
25231;SDS011;13176;51.140;6.290;2023-11-25T06:03:31;32.33;;;29.55;;
25231;SDS011;13176;51.140;6.290;2023-11-25T06:05:58;31.40;;;28.50;;
25231;SDS011;13176;51.140;6.290;2023-11-25T06:08:24;32.22;;;29.15;;
25231;SDS011;13176;51.140;6.290;2023-11-25T06:10:50;33.42;;;30.13;;
25231;SDS011;13176;51.140;6.290;2023-11-25T06:13:17;33.03;;;29.52;;
25231;SDS011;13176;51.140;6.290;2023-11-25T06:15:43;33.50;;;30.63;;
25231;SDS011;13176;51.140;6.290;2023-11-25T06:18:10;31.48;;;28.83;;
25231;SDS011;13176;51.140;6.290;2023-11-25T06:20:39;29.83;;;27.40;;
25231;SDS011;13176;51.140;6.290;2023-11-25T06:23:06;31.98;;;29.17;;
25231;SDS011;13176;51.140;6.290;2023-11-25T06:25:32;32.50;;;29.38;;
25231;SDS011;13176;51.140;6.290;2023-11-25T06:27:59;32.55;;;29.60;;
25231;SDS011;13176;51.140;6.290;2023-11-25T06:30:25;34.20;;;31.08;;
25231;SDS011;13176;51.140;6.290;2023-11-25T06:32:52;32.25;;;29.10;;
25231;SDS011;13176;51.140;6.290;2023-11-25T06:35:18;30.85;;;28.25;;
25231;SDS011;13176;51.140;6.290;2023-11-25T06:37:45;33.08;;;29.73;;
25231;SDS011;13176;51.140;6.290;2023-11-25T06:40:11;32.33;;;29.52;;
25231;SDS011;13176;51.140;6.290;2023-11-25T06:42:41;30.00;;;27.02;;
25231;SDS011;13176;51.140;6.290;2023-11-25T06:45:08;31.45;;;28.40;;
25231;SDS011;13176;51.140;6.290;2023-11-25T06:47:35;31.00;;;28.58;;
25231;SDS011;13176;51.140;6.290;2023-11-25T06:50:01;33.13;;;30.17;;
25231;SDS011;13176;51.140;6.290;2023-11-25T06:52:28;31.85;;;28.38;;
25231;SDS011;13176;51.140;6.290;2023-11-25T06:54:54;30.50;;;27.08;;
25231;SDS011;13176;51.140;6.290;2023-11-25T06:57:21;32.50;;;29.60;;
25231;SDS011;13176;51.140;6.290;2023-11-25T06:59:47;30.77;;;27.88;;
25231;SDS011;13176;51.140;6.290;2023-11-25T07:02:13;31.67;;;28.85;;
25231;SDS011;13176;51.140;6.290;2023-11-25T07:04:41;33.25;;;30.50;;
25231;SDS011;13176;51.140;6.290;2023-11-25T07:07:07;31.20;;;28.13;;
25231;SDS011;13176;51.140;6.290;2023-11-25T07:09:33;30.05;;;27.60;;
25231;SDS011;13176;51.140;6.290;2023-11-25T07:12:00;29.65;;;27.17;;
25231;SDS011;13176;51.140;6.290;2023-11-25T07:14:26;30.02;;;27.40;;
25231;SDS011;13176;51.140;6.290;2023-11-25T07:16:53;29.27;;;26.75;;
25231;SDS011;13176;51.140;6.290;2023-11-25T07:19:19;29.92;;;27.25;;
25231;SDS011;13176;51.140;6.290;2023-11-25T07:21:47;32.00;;;29.10;;
25231;SDS011;13176;51.140;6.290;2023-11-25T07:24:13;27.90;;;25.35;;
25231;SDS011;13176;51.140;6.290;2023-11-25T07:26:40;29.25;;;26.85;;
25231;SDS011;13176;51.140;6.290;2023-11-25T07:29:09;28.48;;;25.30;;
25231;SDS011;13176;51.140;6.290;2023-11-25T07:31:36;31.05;;;28.35;;
25231;SDS011;13176;51.140;6.290;2023-11-25T07:34:03;29.05;;;26.80;;
25231;SDS011;13176;51.140;6.290;2023-11-25T07:36:37;28.63;;;26.38;;
25231;SDS011;13176;51.140;6.290;2023-11-25T07:39:08;29.10;;;26.48;;
25231;SDS011;13176;51.140;6.290;2023-11-25T07:41:37;29.08;;;26.92;;
25231;SDS011;13176;51.140;6.290;2023-11-25T07:44:06;27.08;;;24.95;;
25231;SDS011;13176;51.140;6.290;2023-11-25T07:46:33;29.17;;;26.70;;
25231;SDS011;13176;51.140;6.290;2023-11-25T07:48:59;30.05;;;27.63;;
25231;SDS011;13176;51.140;6.290;2023-11-25T07:51:26;30.50;;;27.83;;
25231;SDS011;13176;51.140;6.290;2023-11-25T07:53:52;33.03;;;30.00;;
25231;SDS011;13176;51.140;6.290;2023-11-25T07:56:19;31.88;;;29.08;;
25231;SDS011;13176;51.140;6.290;2023-11-25T07:58:46;31.05;;;28.38;;
25231;SDS011;13176;51.140;6.290;2023-11-25T08:01:12;31.00;;;28.00;;
25231;SDS011;13176;51.140;6.290;2023-11-25T08:03:39;30.15;;;27.52;;
25231;SDS011;13176;51.140;6.290;2023-11-25T08:06:05;34.15;;;30.80;;
25231;SDS011;13176;51.140;6.290;2023-11-25T08:08:32;30.67;;;27.73;;
25231;SDS011;13176;51.140;6.290;2023-11-25T08:10:58;31.65;;;28.27;;
25231;SDS011;13176;51.140;6.290;2023-11-25T08:13:25;31.73;;;28.95;;
25231;SDS011;13176;51.140;6.290;2023-11-25T08:15:52;31.77;;;29.27;;
25231;SDS011;13176;51.140;6.290;2023-11-25T08:18:18;31.38;;;28.90;;
25231;SDS011;13176;51.140;6.290;2023-11-25T08:20:45;30.23;;;27.75;;
25231;SDS011;13176;51.140;6.290;2023-11-25T08:23:12;33.30;;;30.73;;
25231;SDS011;13176;51.140;6.290;2023-11-25T08:25:39;33.40;;;30.42;;
25231;SDS011;13176;51.140;6.290;2023-11-25T08:28:05;32.33;;;29.88;;
25231;SDS011;13176;51.140;6.290;2023-11-25T08:30:32;30.60;;;28.02;;
25231;SDS011;13176;51.140;6.290;2023-11-25T08:32:59;31.73;;;29.17;;
25231;SDS011;13176;51.140;6.290;2023-11-25T08:35:26;30.52;;;27.73;;
25231;SDS011;13176;51.140;6.290;2023-11-25T08:37:52;34.63;;;32.20;;
25231;SDS011;13176;51.140;6.290;2023-11-25T08:40:19;27.38;;;25.25;;
25231;SDS011;13176;51.140;6.290;2023-11-25T08:42:48;28.50;;;25.67;;
25231;SDS011;13176;51.140;6.290;2023-11-25T08:45:17;28.63;;;25.98;;
25231;SDS011;13176;51.140;6.290;2023-11-25T08:47:45;27.40;;;25.17;;
25231;SDS011;13176;51.140;6.290;2023-11-25T08:50:12;28.92;;;26.63;;
25231;SDS011;13176;51.140;6.290;2023-11-25T08:52:43;25.65;;;23.35;;
25231;SDS011;13176;51.140;6.290;2023-11-25T08:55:11;24.30;;;22.23;;
25231;SDS011;13176;51.140;6.290;2023-11-25T08:57:43;24.15;;;21.60;;
25231;SDS011;13176;51.140;6.290;2023-11-25T09:00:09;26.90;;;24.33;;
25231;SDS011;13176;51.140;6.290;2023-11-25T09:02:48;25.83;;;23.40;;
25231;SDS011;13176;51.140;6.290;2023-11-25T09:05:18;24.73;;;22.33;;
25231;SDS011;13176;51.140;6.290;2023-11-25T09:07:48;25.70;;;23.25;;
25231;SDS011;13176;51.140;6.290;2023-11-25T09:10:17;24.77;;;22.83;;
25231;SDS011;13176;51.140;6.290;2023-11-25T09:12:44;24.00;;;21.27;;
25231;SDS011;13176;51.140;6.290;2023-11-25T09:15:13;25.33;;;22.75;;
25231;SDS011;13176;51.140;6.290;2023-11-25T09:17:40;24.48;;;22.25;;
25231;SDS011;13176;51.140;6.290;2023-11-25T09:20:07;24.98;;;22.60;;
25231;SDS011;13176;51.140;6.290;2023-11-25T09:22:38;25.60;;;23.15;;
25231;SDS011;13176;51.140;6.290;2023-11-25T09:25:05;26.70;;;24.00;;
25231;SDS011;13176;51.140;6.290;2023-11-25T09:27:32;24.67;;;22.10;;
25231;SDS011;13176;51.140;6.290;2023-11-25T09:29:59;26.52;;;24.52;;
25231;SDS011;13176;51.140;6.290;2023-11-25T09:32:25;27.52;;;24.95;;
25231;SDS011;13176;51.140;6.290;2023-11-25T09:34:55;28.73;;;26.27;;
25231;SDS011;13176;51.140;6.290;2023-11-25T09:37:22;27.60;;;25.65;;
25231;SDS011;13176;51.140;6.290;2023-11-25T09:39:48;26.27;;;23.65;;
25231;SDS011;13176;51.140;6.290;2023-11-25T09:42:15;27.08;;;24.77;;
25231;SDS011;13176;51.140;6.290;2023-11-25T09:44:42;25.50;;;23.70;;
25231;SDS011;13176;51.140;6.290;2023-11-25T09:47:09;29.23;;;26.85;;
25231;SDS011;13176;51.140;6.290;2023-11-25T09:49:36;25.33;;;23.13;;
25231;SDS011;13176;51.140;6.290;2023-11-25T09:52:02;30.17;;;27.55;;
25231;SDS011;13176;51.140;6.290;2023-11-25T09:54:35;23.35;;;21.70;;
25231;SDS011;13176;51.140;6.290;2023-11-25T09:57:03;26.02;;;23.70;;
25231;SDS011;13176;51.140;6.290;2023-11-25T09:59:30;21.63;;;19.48;;
25231;SDS011;13176;51.140;6.290;2023-11-25T10:01:59;24.50;;;22.30;;
25231;SDS011;13176;51.140;6.290;2023-11-25T10:04:28;23.42;;;21.65;;
25231;SDS011;13176;51.140;6.290;2023-11-25T10:06:55;23.45;;;21.60;;
25231;SDS011;13176;51.140;6.290;2023-11-25T10:09:21;20.58;;;18.60;;
25231;SDS011;13176;51.140;6.290;2023-11-25T10:11:48;18.92;;;17.60;;
25231;SDS011;13176;51.140;6.290;2023-11-25T10:14:14;22.60;;;20.70;;
25231;SDS011;13176;51.140;6.290;2023-11-25T10:16:43;24.90;;;22.83;;
25231;SDS011;13176;51.140;6.290;2023-11-25T10:19:17;25.15;;;22.92;;
25231;SDS011;13176;51.140;6.290;2023-11-25T10:21:46;24.70;;;22.83;;
25231;SDS011;13176;51.140;6.290;2023-11-25T10:24:13;23.30;;;21.17;;
25231;SDS011;13176;51.140;6.290;2023-11-25T10:26:40;24.80;;;22.50;;
25231;SDS011;13176;51.140;6.290;2023-11-25T10:29:07;23.75;;;21.88;;
25231;SDS011;13176;51.140;6.290;2023-11-25T10:31:35;22.73;;;20.88;;
25231;SDS011;13176;51.140;6.290;2023-11-25T10:34:02;25.05;;;23.05;;
25231;SDS011;13176;51.140;6.290;2023-11-25T10:36:29;25.92;;;23.85;;
25231;SDS011;13176;51.140;6.290;2023-11-25T10:38:55;24.42;;;22.65;;
25231;SDS011;13176;51.140;6.290;2023-11-25T10:41:23;24.15;;;22.25;;
25231;SDS011;13176;51.140;6.290;2023-11-25T10:43:49;20.75;;;19.27;;
25231;SDS011;13176;51.140;6.290;2023-11-25T10:46:16;19.98;;;18.60;;
25231;SDS011;13176;51.140;6.290;2023-11-25T10:48:42;19.70;;;18.05;;
25231;SDS011;13176;51.140;6.290;2023-11-25T10:51:09;18.10;;;16.38;;
25231;SDS011;13176;51.140;6.290;2023-11-25T10:53:37;17.88;;;16.55;;
25231;SDS011;13176;51.140;6.290;2023-11-25T10:56:06;19.55;;;18.30;;
25231;SDS011;13176;51.140;6.290;2023-11-25T10:58:34;16.63;;;15.60;;
25231;SDS011;13176;51.140;6.290;2023-11-25T11:01:01;16.45;;;15.00;;
25231;SDS011;13176;51.140;6.290;2023-11-25T11:03:36;15.65;;;14.55;;
25231;SDS011;13176;51.140;6.290;2023-11-25T11:06:29;18.52;;;17.08;;
25231;SDS011;13176;51.140;6.290;2023-11-25T11:09:04;17.85;;;16.45;;
25231;SDS011;13176;51.140;6.290;2023-11-25T11:11:39;23.40;;;21.52;;
25231;SDS011;13176;51.140;6.290;2023-11-25T11:14:13;22.13;;;20.60;;
25231;SDS011;13176;51.140;6.290;2023-11-25T11:16:57;22.77;;;21.27;;
25231;SDS011;13176;51.140;6.290;2023-11-25T11:19:44;18.65;;;16.70;;
25231;SDS011;13176;51.140;6.290;2023-11-25T11:22:16;17.65;;;16.30;;
25231;SDS011;13176;51.140;6.290;2023-11-25T11:28:09;17.88;;;16.35;;
25231;SDS011;13176;51.140;6.290;2023-11-25T11:33:44;20.48;;;18.98;;
25231;SDS011;13176;51.140;6.290;2023-11-25T11:36:29;22.52;;;20.45;;
25231;SDS011;13176;51.140;6.290;2023-11-25T11:38:56;23.73;;;21.92;;
25231;SDS011;13176;51.140;6.290;2023-11-25T11:41:24;20.27;;;18.90;;
25231;SDS011;13176;51.140;6.290;2023-11-25T11:44:00;19.17;;;17.67;;
25231;SDS011;13176;51.140;6.290;2023-11-25T11:46:37;21.23;;;19.55;;
25231;SDS011;13176;51.140;6.290;2023-11-25T11:49:08;19.20;;;17.23;;
25231;SDS011;13176;51.140;6.290;2023-11-25T11:51:52;19.27;;;17.60;;
25231;SDS011;13176;51.140;6.290;2023-11-25T11:54:26;17.88;;;16.48;;
25231;SDS011;13176;51.140;6.290;2023-11-25T11:59:55;18.17;;;16.38;;
25231;SDS011;13176;51.140;6.290;2023-11-25T12:02:27;17.13;;;15.65;;
25231;SDS011;13176;51.140;6.290;2023-11-25T12:04:57;19.17;;;17.50;;
25231;SDS011;13176;51.140;6.290;2023-11-25T12:07:25;19.42;;;17.73;;
25231;SDS011;13176;51.140;6.290;2023-11-25T12:09:56;18.90;;;17.20;;
25231;SDS011;13176;51.140;6.290;2023-11-25T12:12:23;17.30;;;16.08;;
25231;SDS011;13176;51.140;6.290;2023-11-25T12:14:50;16.15;;;14.95;;
25231;SDS011;13176;51.140;6.290;2023-11-25T12:17:20;14.63;;;13.48;;
25231;SDS011;13176;51.140;6.290;2023-11-25T12:19:47;13.43;;;12.55;;
25231;SDS011;13176;51.140;6.290;2023-11-25T12:22:13;13.48;;;12.35;;
25231;SDS011;13176;51.140;6.290;2023-11-25T12:24:41;14.18;;;12.90;;
25231;SDS011;13176;51.140;6.290;2023-11-25T12:27:09;14.77;;;13.50;;
25231;SDS011;13176;51.140;6.290;2023-11-25T12:29:37;13.48;;;12.55;;
25231;SDS011;13176;51.140;6.290;2023-11-25T12:32:03;15.50;;;14.27;;
25231;SDS011;13176;51.140;6.290;2023-11-25T12:34:30;15.32;;;14.00;;
25231;SDS011;13176;51.140;6.290;2023-11-25T12:36:57;15.60;;;14.05;;
25231;SDS011;13176;51.140;6.290;2023-11-25T12:39:25;16.42;;;15.10;;
25231;SDS011;13176;51.140;6.290;2023-11-25T12:41:52;17.08;;;16.05;;
25231;SDS011;13176;51.140;6.290;2023-11-25T12:44:19;19.77;;;18.52;;
25231;SDS011;13176;51.140;6.290;2023-11-25T12:47:00;19.55;;;17.85;;
25231;SDS011;13176;51.140;6.290;2023-11-25T12:49:28;17.98;;;16.33;;
25231;SDS011;13176;51.140;6.290;2023-11-25T12:51:55;17.85;;;16.30;;
25231;SDS011;13176;51.140;6.290;2023-11-25T12:54:22;17.67;;;16.27;;
25231;SDS011;13176;51.140;6.290;2023-11-25T12:56:53;17.20;;;15.75;;
25231;SDS011;13176;51.140;6.290;2023-11-25T12:59:21;17.42;;;15.80;;
25231;SDS011;13176;51.140;6.290;2023-11-25T13:04:35;13.27;;;12.20;;
25231;SDS011;13176;51.140;6.290;2023-11-25T13:07:10;15.65;;;14.23;;
25231;SDS011;13176;51.140;6.290;2023-11-25T13:09:37;17.23;;;15.25;;
25231;SDS011;13176;51.140;6.290;2023-11-25T13:12:05;16.23;;;14.82;;
25231;SDS011;13176;51.140;6.290;2023-11-25T13:14:33;18.10;;;16.38;;
25231;SDS011;13176;51.140;6.290;2023-11-25T13:16:59;17.65;;;16.02;;
25231;SDS011;13176;51.140;6.290;2023-11-25T13:19:27;17.10;;;15.85;;
25231;SDS011;13176;51.140;6.290;2023-11-25T13:21:54;16.30;;;14.93;;
25231;SDS011;13176;51.140;6.290;2023-11-25T13:24:20;16.88;;;15.27;;
25231;SDS011;13176;51.140;6.290;2023-11-25T13:26:48;17.10;;;15.57;;
25231;SDS011;13176;51.140;6.290;2023-11-25T13:29:15;16.33;;;14.98;;
25231;SDS011;13176;51.140;6.290;2023-11-25T13:31:41;16.30;;;14.73;;
25231;SDS011;13176;51.140;6.290;2023-11-25T13:34:08;14.27;;;13.05;;
25231;SDS011;13176;51.140;6.290;2023-11-25T13:36:35;16.27;;;14.88;;
25231;SDS011;13176;51.140;6.290;2023-11-25T13:39:03;15.20;;;13.90;;
25231;SDS011;13176;51.140;6.290;2023-11-25T13:41:31;15.18;;;13.68;;
25231;SDS011;13176;51.140;6.290;2023-11-25T13:43:57;16.10;;;14.77;;
25231;SDS011;13176;51.140;6.290;2023-11-25T13:46:24;18.40;;;17.00;;
25231;SDS011;13176;51.140;6.290;2023-11-25T13:48:51;16.88;;;15.65;;
25231;SDS011;13176;51.140;6.290;2023-11-25T13:51:18;14.15;;;12.80;;
25231;SDS011;13176;51.140;6.290;2023-11-25T13:53:44;15.70;;;14.40;;
25231;SDS011;13176;51.140;6.290;2023-11-25T13:56:12;17.42;;;15.93;;
25231;SDS011;13176;51.140;6.290;2023-11-25T13:58:38;20.10;;;18.10;;
25231;SDS011;13176;51.140;6.290;2023-11-25T14:01:05;17.05;;;15.63;;
25231;SDS011;13176;51.140;6.290;2023-11-25T14:03:32;17.42;;;15.73;;
25231;SDS011;13176;51.140;6.290;2023-11-25T14:05:58;18.42;;;16.73;;
25231;SDS011;13176;51.140;6.290;2023-11-25T14:08:25;19.88;;;18.20;;
25231;SDS011;13176;51.140;6.290;2023-11-25T14:10:54;19.60;;;17.92;;
25231;SDS011;13176;51.140;6.290;2023-11-25T14:13:22;20.42;;;18.85;;
25231;SDS011;13176;51.140;6.290;2023-11-25T14:15:48;20.60;;;18.63;;
25231;SDS011;13176;51.140;6.290;2023-11-25T14:18:15;20.20;;;18.25;;
25231;SDS011;13176;51.140;6.290;2023-11-25T14:20:42;20.58;;;18.83;;
25231;SDS011;13176;51.140;6.290;2023-11-25T14:23:09;20.40;;;18.70;;
25231;SDS011;13176;51.140;6.290;2023-11-25T14:25:36;20.10;;;18.33;;
25231;SDS011;13176;51.140;6.290;2023-11-25T14:28:03;18.88;;;17.38;;
25231;SDS011;13176;51.140;6.290;2023-11-25T14:30:29;19.48;;;17.42;;
25231;SDS011;13176;51.140;6.290;2023-11-25T14:32:59;19.25;;;17.65;;
25231;SDS011;13176;51.140;6.290;2023-11-25T14:35:26;18.65;;;17.17;;
25231;SDS011;13176;51.140;6.290;2023-11-25T14:37:53;18.70;;;16.77;;